Time;durP1;ratioP1;P1;durP2;ratioP2;P2;SDS_P1;SDS_P2;PMS_P1;PMS_P2;Temp;Humidity;BMP_temperature;BMP_pressure;BME280_temperature;BME280_humidity;BME280_pressure;Samples;Min_cycle;Max_cycle;Signal;HPM_P1;HPM_P2
2023/01/29 00:01:08;;;;;;;13.10;8.75;;;4.30;99.90;;;;;;5049031;28;20424;-68
2023/01/29 00:03:35;;;;;;;13.35;9.32;;;4.30;99.90;;;;;;5047718;28;20441;-70
2023/01/29 00:06:05;;;;;;;11.32;9.20;;;4.40;99.90;;;;;;5048961;28;20424;-68
2023/01/29 00:08:33;;;;;;;14.30;10.45;;;4.60;99.90;;;;;;5046723;28;20436;-68
2023/01/29 00:11:01;;;;;;;12.45;9.77;;;4.40;99.90;;;;;;5045113;28;20425;-68
2023/01/29 00:13:27;;;;;;;12.77;9.65;;;4.40;99.90;;;;;;5049684;28;20542;-69
2023/01/29 00:15:54;;;;;;;11.27;8.98;;;4.50;99.90;;;;;;5049627;28;20932;-68
2023/01/29 00:18:20;;;;;;;13.00;10.73;;;4.80;99.90;;;;;;5044468;28;20429;-67
2023/01/29 00:20:46;;;;;;;12.13;9.40;;;5.10;99.90;;;;;;5048550;28;20421;-68
2023/01/29 00:23:11;;;;;;;14.03;10.10;;;4.50;99.90;;;;;;5019333;28;20546;-68
2023/01/29 00:25:37;;;;;;;14.20;10.53;;;4.50;99.90;;;;;;5044545;28;20829;-69
2023/01/29 00:28:03;;;;;;;15.57;11.07;;;4.50;99.90;;;;;;5044865;28;22570;-68
2023/01/29 00:30:29;;;;;;;13.20;11.87;;;4.50;99.90;;;;;;5045005;28;20760;-69
2023/01/29 00:32:54;;;;;;;15.27;11.20;;;4.60;99.90;;;;;;5048458;28;20421;-68
2023/01/29 00:35:20;;;;;;;11.87;10.03;;;5.10;99.90;;;;;;5046724;28;20444;-70
2023/01/29 00:37:45;;;;;;;12.77;10.67;;;4.60;99.90;;;;;;5029603;28;20838;-68
2023/01/29 00:40:11;;;;;;;15.57;10.93;;;4.50;99.90;;;;;;5025603;28;20911;-69
2023/01/29 00:45:21;;;;;;;15.10;9.63;;;5.50;99.90;;;;;;5047328;28;20426;-68
2023/01/29 00:47:47;;;;;;;12.30;9.27;;;4.80;99.90;;;;;;5045472;28;20545;-70
2023/01/29 00:50:13;;;;;;;11.53;8.67;;;4.70;99.90;;;;;;5047786;28;20429;-69
2023/01/29 00:52:42;;;;;;;11.80;8.93;;;4.60;99.90;;;;;;5046046;28;20496;-69
2023/01/29 00:55:09;;;;;;;12.68;8.23;;;4.60;99.90;;;;;;5044793;28;20436;-69
2023/01/29 00:57:36;;;;;;;12.00;8.57;;;4.60;99.90;;;;;;5045703;28;20476;-69
2023/01/29 01:00:03;;;;;;;12.68;8.20;;;5.40;99.90;;;;;;5046274;28;20435;-68
2023/01/29 01:05:18;;;;;;;12.63;9.45;;;5.20;99.90;;;;;;5042193;28;20417;-69
2023/01/29 01:07:48;;;;;;;9.65;8.65;;;4.60;99.90;;;;;;5047259;28;20474;-68
2023/01/29 01:10:23;;;;;;;11.85;9.32;;;4.60;99.90;;;;;;5046013;28;20425;-69
2023/01/29 01:12:54;;;;;;;11.63;8.98;;;4.60;99.90;;;;;;5044875;28;20467;-69
2023/01/29 01:15:22;;;;;;;11.57;9.20;;;4.70;99.90;;;;;;5044928;28;20473;-68
2023/01/29 01:17:58;;;;;;;11.50;8.88;;;4.60;99.90;;;;;;5042742;28;20488;-69
2023/01/29 01:20:25;;;;;;;11.15;8.90;;;4.70;99.90;;;;;;5040587;28;20444;-69
2023/01/29 01:22:53;;;;;;;11.43;9.50;;;4.70;99.90;;;;;;5046751;28;20492;-68
2023/01/29 01:25:20;;;;;;;14.83;9.70;;;4.60;99.90;;;;;;5043605;28;20425;-68
2023/01/29 01:27:46;;;;;;;10.82;9.50;;;4.70;99.90;;;;;;5045259;28;20421;-68
2023/01/29 01:30:15;;;;;;;13.30;10.13;;;4.70;99.90;;;;;;5043582;28;20483;-68
2023/01/29 01:32:42;;;;;;;11.47;9.23;;;4.70;99.90;;;;;;5046595;28;21016;-69
2023/01/29 01:35:09;;;;;;;11.15;9.60;;;4.70;99.90;;;;;;5042770;28;20931;-68
2023/01/29 01:37:36;;;;;;;10.57;8.95;;;4.60;99.90;;;;;;5046914;28;20468;-69
2023/01/29 01:40:04;;;;;;;10.07;8.63;;;4.60;99.90;;;;;;5044909;28;20416;-69
2023/01/29 01:42:30;;;;;;;10.63;8.32;;;4.70;99.90;;;;;;5046437;28;20433;-68
2023/01/29 01:44:59;;;;;;;11.05;9.05;;;4.70;99.90;;;;;;5047183;28;20413;-68
2023/01/29 01:47:46;;;;;;;9.77;8.38;;;4.60;99.90;;;;;;5047574;28;20425;-68
2023/01/29 01:50:23;;;;;;;11.98;8.10;;;4.60;99.90;;;;;;5045318;28;20935;-69
2023/01/29 01:52:53;;;;;;;9.07;8.10;;;4.60;99.90;;;;;;5043707;28;20437;-68
2023/01/29 01:55:24;;;;;;;9.80;8.80;;;4.70;99.90;;;;;;5043972;28;20424;-68
2023/01/29 01:57:58;;;;;;;10.18;9.18;;;4.60;99.90;;;;;;5044660;28;20437;-69
2023/01/29 02:00:25;;;;;;;12.80;9.50;;;4.70;99.90;;;;;;5041181;28;20421;-68
2023/01/29 02:11:26;;;;;;;12.07;10.20;;;4.70;99.90;;;;;;5042158;28;20835;-68
2023/01/29 02:13:52;;;;;;;10.40;9.30;;;4.80;99.90;;;;;;5046137;28;20422;-68
2023/01/29 02:16:22;;;;;;;11.97;9.90;;;4.70;99.90;;;;;;5044615;28;20484;-68
2023/01/29 02:18:48;;;;;;;12.57;10.03;;;4.70;99.90;;;;;;5044337;28;20457;-69
2023/01/29 02:21:28;;;;;;;11.27;10.02;;;4.70;99.90;;;;;;5043906;28;20989;-68
2023/01/29 02:24:18;;;;;;;11.57;9.38;;;4.70;99.90;;;;;;5042097;28;20447;-68
2023/01/29 02:26:56;;;;;;;14.15;11.13;;;4.70;99.90;;;;;;5043398;28;22102;-69
2023/01/29 02:29:33;;;;;;;12.20;10.90;;;4.90;99.90;;;;;;5044172;28;20417;-68
2023/01/29 02:32:16;;;;;;;12.23;10.63;;;4.70;99.90;;;;;;5045622;28;20421;-68
2023/01/29 02:37:57;;;;;;;12.40;10.47;;;4.70;99.90;;;;;;5037580;28;20522;-69
2023/01/29 02:40:30;;;;;;;12.05;10.05;;;4.70;99.90;;;;;;5041668;28;20417;-68
2023/01/29 02:43:07;;;;;;;12.52;10.00;;;4.80;99.90;;;;;;5036622;28;20425;-69
2023/01/29 02:46:14;;;;;;;12.23;10.67;;;4.80;99.90;;;;;;5035957;28;20437;-68
2023/01/29 02:48:53;;;;;;;16.77;12.45;;;4.70;99.90;;;;;;5041400;28;20442;-69
2023/01/29 02:51:59;;;;;;;15.68;13.32;;;4.70;99.90;;;;;;5039430;28;20421;-69
2023/01/29 02:54:42;;;;;;;13.05;11.57;;;4.70;99.90;;;;;;5041603;28;20448;-69
2023/01/29 02:57:16;;;;;;;15.00;12.85;;;4.70;99.90;;;;;;5037805;28;20464;-69
2023/01/29 03:00:02;;;;;;;14.90;13.40;;;5.70;99.90;;;;;;5043385;28;20463;-68
2023/01/29 03:02:42;;;;;;;15.00;13.40;;;4.70;99.90;;;;;;5044829;28;20525;-68
2023/01/29 03:05:14;;;;;;;16.42;14.38;;;4.70;99.90;;;;;;5041698;28;20518;-68
2023/01/29 03:07:46;;;;;;;15.30;13.20;;;4.70;99.90;;;;;;5045785;28;20433;-69
2023/01/29 03:10:29;;;;;;;16.52;13.27;;;4.70;99.90;;;;;;5043776;28;20416;-69
2023/01/29 03:13:12;;;;;;;15.80;14.23;;;4.80;99.90;;;;;;5044711;28;20457;-68
2023/01/29 03:16:00;;;;;;;16.33;14.18;;;4.70;99.90;;;;;;5042355;28;20440;-68
2023/01/29 03:18:31;;;;;;;17.55;14.98;;;5.40;99.90;;;;;;5034301;28;20501;-69
2023/01/29 03:21:49;;;;;;;16.77;15.00;;;4.70;99.90;;;;;;5044158;28;20964;-68
2023/01/29 03:32:12;;;;;;;15.90;14.30;;;4.70;99.90;;;;;;5043441;28;20461;-68
2023/01/29 03:34:43;;;;;;;15.32;13.82;;;4.70;99.90;;;;;;5046559;28;20433;-69
2023/01/29 03:37:20;;;;;;;15.18;13.57;;;4.70;99.90;;;;;;5050335;28;20424;-68
2023/01/29 03:39:46;;;;;;;17.02;15.23;;;4.70;99.90;;;;;;5047919;28;20417;-69
2023/01/29 03:42:28;;;;;;;15.17;13.67;;;4.80;99.90;;;;;;5048759;28;20435;-68
2023/01/29 03:45:14;;;;;;;16.15;14.55;;;4.80;99.90;;;;;;5051195;28;20428;-69
2023/01/29 03:47:58;;;;;;;15.97;14.40;;;4.80;99.90;;;;;;5042422;28;20464;-69
2023/01/29 03:50:35;;;;;;;17.05;15.25;;;4.70;99.90;;;;;;5053175;28;21176;-68
2023/01/29 03:53:00;;;;;;;16.70;15.00;;;4.70;99.90;;;;;;5049032;28;20563;-69
2023/01/29 03:55:46;;;;;;;17.47;15.70;;;4.80;99.90;;;;;;5045843;28;20441;-70
2023/01/29 03:58:36;;;;;;;17.27;15.57;;;4.80;99.90;;;;;;5047986;28;20429;-69
2023/01/29 04:01:18;;;;;;;18.55;16.30;;;4.80;99.90;;;;;;5047902;28;20417;-69
2023/01/29 04:04:04;;;;;;;17.38;15.60;;;4.70;99.90;;;;;;5046877;28;20425;-69
2023/01/29 04:06:34;;;;;;;18.23;14.85;;;4.80;99.90;;;;;;5045302;28;20503;-68
2023/01/29 04:09:11;;;;;;;21.83;15.73;;;4.70;99.90;;;;;;5036687;28;21169;-68
2023/01/29 04:11:43;;;;;;;17.42;15.63;;;4.80;99.90;;;;;;5046805;28;20421;-68
2023/01/29 04:14:08;;;;;;;17.70;15.98;;;5.70;99.90;;;;;;5045227;28;20437;-69
2023/01/29 04:16:39;;;;;;;17.40;15.33;;;4.80;99.90;;;;;;5042825;28;20444;-69
2023/01/29 04:19:06;;;;;;;18.40;15.38;;;4.70;99.90;;;;;;5042233;28;20599;-68
2023/01/29 04:21:32;;;;;;;17.42;14.75;;;4.70;99.90;;;;;;5040396;28;20425;-69
2023/01/29 04:23:58;;;;;;;17.13;15.37;;;4.70;99.90;;;;;;5040895;28;20425;-68
2023/01/29 04:26:38;;;;;;;18.17;14.23;;;4.70;99.90;;;;;;5046291;28;20538;-69
2023/01/29 04:29:38;;;;;;;16.77;14.27;;;4.70;99.90;;;;;;5043917;28;20973;-69
2023/01/29 04:32:10;;;;;;;17.20;15.02;;;4.80;99.90;;;;;;5040057;28;20863;-68
2023/01/29 04:35:00;;;;;;;16.70;14.93;;;4.70;99.90;;;;;;5045923;28;20421;-68
2023/01/29 04:37:35;;;;;;;15.18;13.63;;;4.80;99.90;;;;;;5045322;28;20496;-68
2023/01/29 04:40:31;;;;;;;14.63;13.23;;;5.00;99.90;;;;;;5048843;28;20415;-69
2023/01/29 04:43:06;;;;;;;14.60;13.10;;;4.80;99.90;;;;;;5042768;28;20428;-69
2023/01/29 04:45:47;;;;;;;14.75;13.32;;;4.80;99.90;;;;;;5044566;28;20928;-68
2023/01/29 04:48:24;;;;;;;15.75;14.20;;;5.90;99.90;;;;;;5044155;28;20444;-69
2023/01/29 04:51:00;;;;;;;14.93;13.40;;;4.70;99.90;;;;;;5044858;28;20465;-68
2023/01/29 04:53:42;;;;;;;15.88;14.18;;;4.80;99.90;;;;;;5040714;28;20445;-69
2023/01/29 04:56:18;;;;;;;18.47;14.20;;;4.80;99.90;;;;;;5032223;28;20446;-68
2023/01/29 04:58:49;;;;;;;15.60;14.00;;;4.80;99.90;;;;;;5042271;28;20425;-69
2023/01/29 05:01:18;;;;;;;15.25;13.68;;;4.80;99.90;;;;;;5047646;28;20452;-68
2023/01/29 05:03:46;;;;;;;17.35;15.55;;;4.80;99.90;;;;;;5046150;28;20421;-69
2023/01/29 05:06:14;;;;;;;16.45;14.70;;;4.70;99.90;;;;;;5047357;28;20803;-69
2023/01/29 05:08:41;;;;;;;18.00;15.88;;;4.80;99.90;;;;;;5042730;28;20456;-69
2023/01/29 05:11:07;;;;;;;17.63;15.33;;;4.70;99.90;;;;;;5047196;28;20440;-69
2023/01/29 05:13:35;;;;;;;20.00;16.38;;;4.70;99.90;;;;;;5049049;28;20780;-68
2023/01/29 05:16:07;;;;;;;18.30;16.40;;;4.70;99.90;;;;;;5050540;28;20422;-68
2023/01/29 05:18:33;;;;;;;17.90;15.57;;;4.70;99.90;;;;;;5041062;28;20467;-68
2023/01/29 05:21:03;;;;;;;21.15;16.33;;;4.80;99.90;;;;;;5045563;28;20417;-69
2023/01/29 05:23:29;;;;;;;17.67;15.10;;;4.80;99.90;;;;;;5037501;28;20982;-68
2023/01/29 05:25:56;;;;;;;17.00;15.18;;;4.80;99.90;;;;;;5044687;28;20512;-70
2023/01/29 05:28:22;;;;;;;17.58;15.80;;;4.70;99.90;;;;;;5046292;28;20425;-68
2023/01/29 05:30:50;;;;;;;19.33;17.30;;;4.80;99.90;;;;;;5046077;28;20575;-68
2023/01/29 05:33:42;;;;;;;19.45;17.23;;;4.70;99.90;;;;;;5047152;28;20433;-70
2023/01/29 05:36:08;;;;;;;18.52;16.67;;;4.70;99.90;;;;;;5041029;28;20469;-68
2023/01/29 05:38:33;;;;;;;18.38;16.33;;;4.70;99.90;;;;;;5043708;28;20439;-69
2023/01/29 05:40:59;;;;;;;18.30;16.38;;;4.70;99.90;;;;;;5047040;28;20430;-70
2023/01/29 05:43:25;;;;;;;17.45;15.52;;;4.70;99.90;;;;;;5046679;28;20516;-69
2023/01/29 05:45:57;;;;;;;17.10;14.80;;;5.70;99.90;;;;;;5045731;28;20424;-68
2023/01/29 05:48:23;;;;;;;19.05;16.10;;;4.70;99.90;;;;;;5046920;28;20460;-68
2023/01/29 05:50:49;;;;;;;17.90;16.08;;;4.60;99.90;;;;;;5045814;28;20425;-69
2023/01/29 05:53:14;;;;;;;19.25;17.00;;;5.50;99.90;;;;;;5043950;28;20421;-68
2023/01/29 05:55:46;;;;;;;18.70;16.77;;;4.60;99.90;;;;;;5044916;28;20470;-69
2023/01/29 05:58:12;;;;;;;18.95;16.95;;;4.70;99.90;;;;;;5045505;28;20520;-69
2023/01/29 06:00:39;;;;;;;19.13;16.83;;;4.60;99.90;;;;;;5040646;28;20520;-68
2023/01/29 06:03:04;;;;;;;19.17;17.10;;;4.60;99.90;;;;;;5046381;28;20951;-68
2023/01/29 06:05:30;;;;;;;20.23;18.03;;;4.70;99.90;;;;;;5044836;28;20485;-69
2023/01/29 06:07:56;;;;;;;20.58;17.52;;;4.70;99.90;;;;;;5045537;28;20516;-69
2023/01/29 06:10:22;;;;;;;21.40;17.77;;;4.70;99.90;;;;;;5044373;28;20895;-69
2023/01/29 06:12:47;;;;;;;24.42;20.13;;;4.70;99.90;;;;;;5039991;28;20493;-69
2023/01/29 06:15:14;;;;;;;26.98;22.95;;;4.90;99.90;;;;;;5031479;28;20942;-68
2023/01/29 06:17:41;;;;;;;22.77;20.35;;;4.60;99.90;;;;;;5045266;28;20433;-69
2023/01/29 06:20:07;;;;;;;24.90;21.50;;;5.20;99.90;;;;;;5044128;28;20516;-69
2023/01/29 06:22:33;;;;;;;27.15;24.10;;;4.50;99.90;;;;;;5045695;28;20432;-69
2023/01/29 06:24:58;;;;;;;25.17;22.47;;;4.50;99.90;;;;;;5046710;28;20413;-68
2023/01/29 06:27:24;;;;;;;27.47;24.30;;;6.40;99.90;;;;;;5045352;28;20515;-68
2023/01/29 06:29:50;;;;;;;28.80;25.08;;;4.50;99.90;;;;;;5042474;28;20444;-68
2023/01/29 06:32:15;;;;;;;30.20;26.40;;;4.50;99.90;;;;;;5015800;28;20520;-69
2023/01/29 06:34:41;;;;;;;34.92;27.30;;;4.40;99.90;;;;;;5043135;28;20935;-68
2023/01/29 06:37:06;;;;;;;33.00;26.77;;;4.30;99.90;;;;;;5043767;28;20852;-69
2023/01/29 06:39:33;;;;;;;31.98;26.33;;;4.70;99.90;;;;;;5019984;28;20863;-68
2023/01/29 06:41:58;;;;;;;29.08;25.98;;;4.40;99.90;;;;;;5042691;28;20427;-68
2023/01/29 06:44:24;;;;;;;29.27;26.13;;;4.40;99.90;;;;;;5045403;28;20882;-69
2023/01/29 06:46:50;;;;;;;31.43;26.03;;;4.40;99.90;;;;;;5045868;28;20971;-68
2023/01/29 06:49:15;;;;;;;30.23;26.50;;;4.30;99.90;;;;;;5042601;28;20441;-69
2023/01/29 06:51:41;;;;;;;29.50;25.07;;;5.20;99.90;;;;;;5042720;28;20429;-68
2023/01/29 06:54:08;;;;;;;31.10;25.60;;;4.20;99.90;;;;;;5044264;28;20436;-68
2023/01/29 06:56:34;;;;;;;30.50;27.08;;;4.30;99.90;;;;;;5045498;28;20425;-69
2023/01/29 06:59:00;;;;;;;30.63;27.33;;;4.30;99.90;;;;;;5028689;28;20448;-68
2023/01/29 07:01:25;;;;;;;31.47;27.80;;;4.30;99.90;;;;;;5031762;28;20414;-69
2023/01/29 07:03:51;;;;;;;30.00;26.90;;;4.40;99.90;;;;;;5043590;28;20460;-68
2023/01/29 07:06:18;;;;;;;28.17;25.23;;;4.20;99.90;;;;;;5038908;28;20488;-68
2023/01/29 07:08:44;;;;;;;28.47;25.53;;;4.20;99.90;;;;;;5042034;28;20439;-68
2023/01/29 07:11:09;;;;;;;31.98;26.83;;;4.20;99.90;;;;;;5041882;28;20435;-68
2023/01/29 07:13:35;;;;;;;30.20;25.85;;;4.90;99.90;;;;;;5034667;28;20442;-68
2023/01/29 07:16:03;;;;;;;28.95;25.85;;;5.20;99.90;;;;;;5038092;28;20441;-68
2023/01/29 07:18:29;;;;;;;29.77;26.58;;;4.40;99.90;;;;;;5044277;28;20464;-69
2023/01/29 07:20:55;;;;;;;29.70;26.60;;;4.40;99.90;;;;;;5036493;28;20487;-69
2023/01/29 07:23:21;;;;;;;28.67;25.65;;;4.30;99.90;;;;;;5043448;28;20452;-69
2023/01/29 07:25:48;;;;;;;32.00;27.43;;;4.60;99.90;;;;;;5042085;28;20965;-68
2023/01/29 07:28:15;;;;;;;30.30;25.23;;;4.20;99.90;;;;;;5043981;28;20974;-67
2023/01/29 07:30:41;;;;;;;30.40;27.13;;;4.30;99.90;;;;;;5039072;28;20421;-68
2023/01/29 07:33:08;;;;;;;31.17;27.80;;;4.20;99.90;;;;;;5026129;28;20444;-67
2023/01/29 07:35:39;;;;;;;30.55;27.25;;;4.30;99.90;;;;;;5042971;28;20772;-69
2023/01/29 07:38:06;;;;;;;30.87;27.40;;;4.40;99.90;;;;;;5038607;28;20441;-69
2023/01/29 07:40:32;;;;;;;31.65;28.45;;;4.40;99.90;;;;;;5042365;28;20414;-68
2023/01/29 07:43:03;;;;;;;29.45;25.73;;;4.20;99.90;;;;;;5026295;28;20825;-67
2023/01/29 07:45:30;;;;;;;31.87;28.57;;;6.30;99.90;;;;;;5041059;28;20421;-68
2023/01/29 07:47:56;;;;;;;29.45;26.30;;;4.30;99.90;;;;;;5027878;28;20425;-67
2023/01/29 07:50:23;;;;;;;29.83;26.63;;;4.30;99.90;;;;;;5018051;28;20428;-67
2023/01/29 07:52:49;;;;;;;31.02;27.42;;;4.30;99.90;;;;;;5035108;28;20493;-68
2023/01/29 07:55:16;;;;;;;32.87;28.20;;;4.30;99.90;;;;;;5034461;28;20572;-68
2023/01/29 07:57:42;;;;;;;34.15;29.25;;;4.30;99.90;;;;;;5039024;28;20498;-68
2023/01/29 08:00:09;;;;;;;34.57;30.73;;;4.20;99.90;;;;;;5039378;28;20425;-68
2023/01/29 08:02:34;;;;;;;37.30;32.58;;;4.30;99.90;;;;;;5042476;28;20433;-70
2023/01/29 08:05:00;;;;;;;38.38;30.15;;;4.30;99.90;;;;;;5035762;28;20431;-69
2023/01/29 08:07:26;;;;;;;37.65;31.48;;;4.10;99.90;;;;;;5036747;28;20426;-68
2023/01/29 08:09:51;;;;;;;37.03;32.40;;;4.30;99.90;;;;;;5044440;28;20483;-68
2023/01/29 08:12:17;;;;;;;34.22;30.20;;;4.30;99.90;;;;;;5039972;28;20440;-68
2023/01/29 08:14:44;;;;;;;34.03;30.27;;;4.30;99.90;;;;;;5039838;28;20437;-69
2023/01/29 08:17:11;;;;;;;37.37;31.23;;;4.90;99.90;;;;;;5040615;28;20597;-69
2023/01/29 08:19:36;;;;;;;35.88;30.50;;;4.80;99.90;;;;;;5045299;28;20429;-69
2023/01/29 08:22:03;;;;;;;41.07;32.40;;;4.10;99.90;;;;;;5034412;28;20446;-68
2023/01/29 08:24:28;;;;;;;38.55;33.17;;;4.20;99.90;;;;;;5045075;28;20413;-69
2023/01/29 08:26:54;;;;;;;38.87;30.83;;;4.30;99.90;;;;;;5024405;28;20444;-68
2023/01/29 08:29:20;;;;;;;37.07;33.07;;;4.50;99.90;;;;;;5040389;28;20413;-69
2023/01/29 08:31:46;;;;;;;38.80;32.47;;;5.40;99.90;;;;;;5042764;28;20456;-68
2023/01/29 08:34:11;;;;;;;41.50;32.78;;;4.20;99.90;;;;;;5042393;28;20435;-69
2023/01/29 08:36:37;;;;;;;42.00;32.10;;;4.30;99.90;;;;;;5022241;28;20430;-69
2023/01/29 08:39:03;;;;;;;37.95;32.05;;;4.20;99.90;;;;;;5040053;28;20866;-68
2023/01/29 08:41:28;;;;;;;41.72;32.70;;;4.30;99.90;;;;;;5043366;28;20423;-69
2023/01/29 08:43:54;;;;;;;39.28;32.10;;;4.50;99.90;;;;;;5045635;28;20524;-67
2023/01/29 08:46:20;;;;;;;41.40;33.10;;;4.40;99.90;;;;;;5044205;28;20769;-69
2023/01/29 08:48:45;;;;;;;39.67;31.67;;;5.10;99.90;;;;;;5044729;28;20788;-67
2023/01/29 08:51:12;;;;;;;39.72;31.83;;;4.30;99.90;;;;;;5047025;28;20818;-67
2023/01/29 08:53:37;;;;;;;36.65;31.15;;;4.40;99.90;;;;;;5045358;28;20444;-68
2023/01/29 08:56:03;;;;;;;39.93;31.93;;;4.40;99.90;;;;;;5038265;28;20762;-68
2023/01/29 08:58:29;;;;;;;38.55;31.42;;;4.50;99.90;;;;;;5039720;28;20443;-69
2023/01/29 09:00:54;;;;;;;38.70;31.80;;;4.60;99.90;;;;;;5040248;28;20421;-69
2023/01/29 09:03:20;;;;;;;41.60;31.63;;;4.40;99.90;;;;;;5046171;28;20788;-69
2023/01/29 09:05:46;;;;;;;40.85;31.88;;;4.60;99.90;;;;;;5039141;28;20984;-69
2023/01/29 09:08:12;;;;;;;35.70;30.13;;;5.20;99.90;;;;;;5043153;28;20863;-69
2023/01/29 09:10:37;;;;;;;36.78;30.38;;;4.60;99.90;;;;;;5043927;28;20782;-68
2023/01/29 09:13:04;;;;;;;34.00;29.40;;;4.60;99.90;;;;;;5042437;28;20433;-69
2023/01/29 09:15:29;;;;;;;38.30;31.38;;;4.70;99.90;;;;;;5027534;28;20428;-69
2023/01/29 09:17:55;;;;;;;40.30;31.38;;;4.80;99.90;;;;;;5029309;28;20442;-68
2023/01/29 09:20:21;;;;;;;36.53;30.23;;;4.60;99.90;;;;;;5045415;28;20718;-68
2023/01/29 09:22:48;;;;;;;37.60;30.83;;;4.80;99.90;;;;;;5045550;28;20421;-70
2023/01/29 09:25:14;;;;;;;36.13;31.70;;;4.80;99.90;;;;;;5044381;28;20477;-68
2023/01/29 09:27:39;;;;;;;38.13;31.65;;;6.80;99.90;;;;;;5043560;28;20434;-69
2023/01/29 09:30:05;;;;;;;36.57;30.80;;;4.70;99.90;;;;;;5044630;28;20440;-69
2023/01/29 09:32:33;;;;;;;41.00;31.23;;;4.80;99.90;;;;;;5046147;28;20421;-68
2023/01/29 09:34:59;;;;;;;36.70;30.65;;;4.80;99.90;;;;;;5046333;28;20425;-69
2023/01/29 09:37:24;;;;;;;34.95;30.38;;;4.80;99.90;;;;;;5044243;28;20440;-68
2023/01/29 09:39:50;;;;;;;38.55;30.77;;;4.70;99.90;;;;;;5044031;28;20459;-69
2023/01/29 09:42:42;;;;;;;33.83;29.03;;;4.70;99.90;;;;;;5046469;28;20426;-68
2023/01/29 09:45:14;;;;;;;34.28;29.83;;;4.70;99.90;;;;;;5039928;28;20732;-68
2023/01/29 09:47:40;;;;;;;37.88;30.70;;;4.70;99.90;;;;;;5045608;28;20848;-68
2023/01/29 09:50:17;;;;;;;40.25;30.85;;;4.90;99.90;;;;;;5045082;28;20507;-69
2023/01/29 09:52:54;;;;;;;39.47;32.57;;;4.60;99.90;;;;;;5047577;28;20517;-67
2023/01/29 09:55:28;;;;;;;39.80;31.55;;;4.70;99.90;;;;;;5027713;28;20448;-68
2023/01/29 09:58:09;;;;;;;40.00;31.50;;;4.60;99.90;;;;;;5045783;28;20955;-68
2023/01/29 10:01:05;;;;;;;39.20;32.95;;;4.70;99.90;;;;;;5027944;28;20468;-68
2023/01/29 10:03:49;;;;;;;39.85;31.92;;;4.60;99.90;;;;;;5043166;28;20490;-69
2023/01/29 10:06:27;;;;;;;39.78;32.38;;;4.60;99.90;;;;;;5044002;28;20508;-67
2023/01/29 10:09:05;;;;;;;41.70;33.20;;;4.60;99.90;;;;;;5043663;28;20430;-68
2023/01/29 10:12:21;;;;;;;41.85;33.22;;;5.50;99.90;;;;;;5043701;28;20417;-69
2023/01/29 10:15:15;;;;;;;45.42;33.65;;;4.60;99.90;;;;;;5004465;28;20644;-69
2023/01/29 10:18:15;;;;;;;42.38;33.70;;;4.70;99.90;;;;;;5059461;28;20436;-68
2023/01/29 10:21:00;;;;;;;48.00;36.23;;;4.60;99.90;;;;;;5044832;28;20784;-69
2023/01/29 10:23:39;;;;;;;44.92;34.75;;;4.60;99.90;;;;;;5043550;28;20538;-69
2023/01/29 10:26:11;;;;;;;49.00;37.17;;;4.70;99.90;;;;;;5059467;28;20425;-69
2023/01/29 10:28:42;;;;;;;48.22;37.25;;;4.70;99.90;;;;;;5044229;28;20433;-69
2023/01/29 10:31:30;;;;;;;40.08;33.67;;;4.70;99.90;;;;;;5041578;28;20437;-69
2023/01/29 10:34:02;;;;;;;46.25;34.35;;;4.60;99.90;;;;;;5044320;28;20413;-68
2023/01/29 10:36:32;;;;;;;40.03;32.83;;;5.20;99.90;;;;;;5045309;28;20432;-68
2023/01/29 10:38:58;;;;;;;40.30;31.77;;;4.70;99.90;;;;;;5046883;28;20429;-69
2023/01/29 10:41:38;;;;;;;46.15;34.80;;;4.80;99.90;;;;;;5043326;28;20421;-68
2023/01/29 10:44:24;;;;;;;44.13;35.42;;;4.80;99.90;;;;;;5041349;28;20567;-68
2023/01/29 10:47:11;;;;;;;40.67;32.95;;;4.80;99.90;;;;;;5044231;28;20779;-68
2023/01/29 10:49:39;;;;;;;39.73;31.87;;;4.80;99.90;;;;;;5043369;28;20436;-68
2023/01/29 10:52:08;;;;;;;42.17;31.65;;;5.00;99.90;;;;;;5043790;28;20424;-68
2023/01/29 10:54:40;;;;;;;43.20;32.85;;;5.00;99.90;;;;;;5047224;28;20433;-69
2023/01/29 10:57:31;;;;;;;38.30;30.90;;;4.90;99.90;;;;;;5037622;28;20427;-68
2023/01/29 11:00:15;;;;;;;42.75;33.47;;;4.90;99.90;;;;;;4995273;28;20440;-69
2023/01/29 11:02:47;;;;;;;38.85;29.65;;;5.10;99.90;;;;;;5042101;28;20428;-68
2023/01/29 11:05:37;;;;;;;38.92;29.63;;;5.50;99.90;;;;;;5042584;28;20472;-69
2023/01/29 11:08:07;;;;;;;39.00;30.48;;;5.20;99.90;;;;;;5044199;28;20422;-68
2023/01/29 11:10:40;;;;;;;41.35;30.20;;;5.00;99.90;;;;;;5045296;28;20541;-68
2023/01/29 11:13:12;;;;;;;39.60;30.30;;;5.10;99.90;;;;;;5046322;28;20424;-69
2023/01/29 11:15:38;;;;;;;42.33;31.10;;;5.30;99.90;;;;;;5044687;28;20497;-68
2023/01/29 11:18:14;;;;;;;35.23;28.80;;;5.00;99.90;;;;;;5042860;28;20532;-68
2023/01/29 11:20:42;;;;;;;41.53;29.65;;;5.10;99.90;;;;;;5042520;28;20425;-69
2023/01/29 11:23:32;;;;;;;37.47;28.67;;;5.20;99.90;;;;;;5043176;28;20508;-68
2023/01/29 11:25:59;;;;;;;38.78;28.38;;;5.10;99.90;;;;;;5045078;28;21047;-69
2023/01/29 11:28:54;;;;;;;39.33;28.95;;;5.30;99.90;;;;;;5045537;28;20463;-68
2023/01/29 11:31:24;;;;;;;33.47;28.58;;;5.20;99.90;;;;;;5035826;28;20524;-68
2023/01/29 11:34:00;;;;;;;35.58;27.10;;;5.20;99.90;;;;;;5042947;28;20421;-68
2023/01/29 11:36:37;;;;;;;32.63;26.90;;;5.20;99.90;;;;;;5044031;28;20516;-68
2023/01/29 11:39:15;;;;;;;36.50;27.52;;;5.20;99.90;;;;;;5026095;28;20808;-68
2023/01/29 11:41:57;;;;;;;37.60;26.92;;;5.20;99.90;;;;;;5027274;28;20409;-68
2023/01/29 11:44:31;;;;;;;35.30;26.58;;;5.30;99.90;;;;;;5045013;28;20417;-68
2023/01/29 11:47:27;;;;;;;34.95;27.75;;;5.30;99.90;;;;;;5044648;28;20479;-68
2023/01/29 11:49:54;;;;;;;34.42;27.48;;;5.40;99.90;;;;;;5048207;28;20424;-69
2023/01/29 11:52:23;;;;;;;30.20;24.95;;;5.60;99.90;;;;;;5049581;28;20421;-68
2023/01/29 11:55:02;;;;;;;28.38;23.90;;;5.60;99.90;;;;;;5049680;28;20478;-68
2023/01/29 11:57:41;;;;;;;27.17;22.73;;;5.50;99.90;;;;;;5046272;28;20444;-68
2023/01/29 12:00:16;;;;;;;33.15;26.23;;;5.60;99.90;;;;;;5049309;28;20467;-69
2023/01/29 12:02:46;;;;;;;28.67;23.95;;;5.70;99.90;;;;;;5043537;28;20923;-69
2023/01/29 12:05:16;;;;;;;31.70;24.33;;;5.50;99.90;;;;;;5048431;28;20432;-68
2023/01/29 12:07:48;;;;;;;32.20;24.48;;;5.70;99.90;;;;;;5045488;28;20429;-69
2023/01/29 12:10:36;;;;;;;31.55;24.58;;;5.50;99.90;;;;;;5043613;28;20417;-70
2023/01/29 12:13:14;;;;;;;30.20;24.50;;;5.40;99.90;;;;;;5042435;28;20432;-68
2023/01/29 12:15:43;;;;;;;27.95;23.58;;;5.40;99.90;;;;;;5045686;28;20476;-69
2023/01/29 12:18:29;;;;;;;34.30;24.63;;;5.40;99.90;;;;;;5044481;28;20444;-69
2023/01/29 12:21:01;;;;;;;31.60;24.07;;;5.50;99.90;;;;;;5046242;28;20491;-67
2023/01/29 12:24:04;;;;;;;27.17;23.17;;;5.50;99.90;;;;;;5047199;28;20413;-68
2023/01/29 12:27:02;;;;;;;26.52;23.05;;;5.40;99.90;;;;;;5046680;28;20429;-69
2023/01/29 12:29:37;;;;;;;27.70;21.75;;;5.60;99.90;;;;;;5046743;28;20471;-68
2023/01/29 12:32:32;;;;;;;28.02;23.65;;;5.40;99.90;;;;;;5061634;28;20436;-69
2023/01/29 12:35:16;;;;;;;27.63;21.92;;;5.50;99.90;;;;;;5044838;28;20486;-70
2023/01/29 12:38:01;;;;;;;29.40;23.92;;;5.50;99.90;;;;;;5047659;28;20444;-69
2023/01/29 12:40:41;;;;;;;25.75;21.80;;;5.40;99.90;;;;;;5048589;28;20472;-69
2023/01/29 12:43:14;;;;;;;28.52;22.35;;;5.50;99.90;;;;;;5045930;28;21001;-70
2023/01/29 12:45:43;;;;;;;24.45;21.45;;;5.50;99.90;;;;;;5045878;28;20516;-68
2023/01/29 12:48:13;;;;;;;26.85;22.60;;;5.50;99.90;;;;;;5047734;28;20429;-69
2023/01/29 12:50:39;;;;;;;30.30;22.67;;;5.50;99.90;;;;;;5047115;28;20421;-68
2023/01/29 12:53:09;;;;;;;28.52;23.10;;;5.50;99.90;;;;;;5045248;28;20513;-69
2023/01/29 12:55:44;;;;;;;29.33;23.55;;;5.40;99.90;;;;;;5049640;28;20414;-69
2023/01/29 12:58:33;;;;;;;29.80;22.83;;;5.30;99.90;;;;;;5048099;28;20433;-69
2023/01/29 13:01:08;;;;;;;28.10;22.35;;;5.50;99.90;;;;;;5045568;28;20425;-68
2023/01/29 13:03:48;;;;;;;28.20;23.92;;;5.50;99.90;;;;;;5040309;28;20423;-68
2023/01/29 13:06:19;;;;;;;31.00;25.73;;;5.40;99.90;;;;;;5043094;28;20436;-70
2023/01/29 13:08:54;;;;;;;33.40;25.15;;;6.40;99.90;;;;;;5046136;28;20535;-67
2023/01/29 13:11:28;;;;;;;26.93;23.27;;;5.40;99.90;;;;;;5055885;28;20429;-69
2023/01/29 13:14:11;;;;;;;30.83;25.95;;;5.40;99.90;;;;;;5040501;28;20558;-69
2023/01/29 13:16:42;;;;;;;29.10;24.27;;;5.10;99.90;;;;;;5021034;28;20889;-69
2023/01/29 13:19:40;;;;;;;28.90;23.90;;;5.30;99.90;;;;;;5031989;28;20916;-68
2023/01/29 13:22:34;;;;;;;30.98;25.50;;;5.30;99.90;;;;;;5046377;28;20416;-69
2023/01/29 13:25:00;;;;;;;29.15;23.95;;;5.10;99.90;;;;;;5046701;28;20742;-68
2023/01/29 13:27:29;;;;;;;31.42;25.10;;;5.20;99.90;;;;;;5046637;28;20453;-68
2023/01/29 13:29:56;;;;;;;34.35;26.33;;;5.20;99.90;;;;;;5048110;28;20441;-68